sensor_id;sensor_type;location;lat;lon;timestamp;P1;durP1;ratioP1;P2;durP2;ratioP2
1410;SDS011;700;51.906;8.404;2024-01-27T00:03:23;14.10;;;4.40;;
1410;SDS011;700;51.906;8.404;2024-01-27T00:08:24;16.67;;;3.80;;
1410;SDS011;700;51.906;8.404;2024-01-27T00:13:27;13.83;;;3.20;;
1410;SDS011;700;51.906;8.404;2024-01-27T00:18:32;16.13;;;3.27;;
1410;SDS011;700;51.906;8.404;2024-01-27T00:23:37;12.60;;;3.30;;
1410;SDS011;700;51.906;8.404;2024-01-27T00:28:38;8.80;;;2.97;;
1410;SDS011;700;51.906;8.404;2024-01-27T00:33:41;9.27;;;2.60;;
1410;SDS011;700;51.906;8.404;2024-01-27T00:38:46;15.40;;;3.73;;
1410;SDS011;700;51.906;8.404;2024-01-27T00:43:47;11.30;;;3.23;;
1410;SDS011;700;51.906;8.404;2024-01-27T00:48:50;10.70;;;2.77;;
1410;SDS011;700;51.906;8.404;2024-01-27T00:53:50;12.17;;;3.00;;
1410;SDS011;700;51.906;8.404;2024-01-27T00:58:53;8.27;;;3.17;;
1410;SDS011;700;51.906;8.404;2024-01-27T01:03:56;11.27;;;3.00;;
1410;SDS011;700;51.906;8.404;2024-01-27T01:08:57;12.93;;;3.07;;
1410;SDS011;700;51.906;8.404;2024-01-27T01:13:57;13.97;;;4.03;;
1410;SDS011;700;51.906;8.404;2024-01-27T01:19:00;17.53;;;2.90;;
1410;SDS011;700;51.906;8.404;2024-01-27T01:24:01;21.53;;;4.13;;
1410;SDS011;700;51.906;8.404;2024-01-27T01:29:02;8.30;;;2.70;;
1410;SDS011;700;51.906;8.404;2024-01-27T01:34:02;13.17;;;3.20;;
1410;SDS011;700;51.906;8.404;2024-01-27T01:39:03;21.30;;;4.50;;
1410;SDS011;700;51.906;8.404;2024-01-27T01:44:03;12.30;;;3.67;;
1410;SDS011;700;51.906;8.404;2024-01-27T01:49:06;16.67;;;3.60;;
1410;SDS011;700;51.906;8.404;2024-01-27T01:54:07;14.33;;;3.20;;
1410;SDS011;700;51.906;8.404;2024-01-27T01:59:08;12.23;;;4.17;;
1410;SDS011;700;51.906;8.404;2024-01-27T02:04:11;12.10;;;3.30;;
1410;SDS011;700;51.906;8.404;2024-01-27T02:09:13;9.83;;;3.10;;
1410;SDS011;700;51.906;8.404;2024-01-27T02:14:14;14.50;;;4.00;;
1410;SDS011;700;51.906;8.404;2024-01-27T02:19:17;6.27;;;3.33;;
1410;SDS011;700;51.906;8.404;2024-01-27T02:24:20;8.33;;;3.30;;
1410;SDS011;700;51.906;8.404;2024-01-27T02:29:22;11.23;;;4.00;;
1410;SDS011;700;51.906;8.404;2024-01-27T02:34:23;9.60;;;3.33;;
1410;SDS011;700;51.906;8.404;2024-01-27T02:39:26;11.43;;;3.47;;
1410;SDS011;700;51.906;8.404;2024-01-27T02:44:26;11.90;;;4.97;;
1410;SDS011;700;51.906;8.404;2024-01-27T02:49:29;13.03;;;3.87;;
1410;SDS011;700;51.906;8.404;2024-01-27T02:54:30;12.13;;;3.47;;
1410;SDS011;700;51.906;8.404;2024-01-27T02:59:30;11.20;;;3.87;;
1410;SDS011;700;51.906;8.404;2024-01-27T03:04:31;12.70;;;3.60;;
1410;SDS011;700;51.906;8.404;2024-01-27T03:09:32;14.53;;;4.90;;
1410;SDS011;700;51.906;8.404;2024-01-27T03:14:32;18.30;;;4.60;;
1410;SDS011;700;51.906;8.404;2024-01-27T03:19:33;14.53;;;4.40;;
1410;SDS011;700;51.906;8.404;2024-01-27T03:24:34;12.53;;;3.83;;
1410;SDS011;700;51.906;8.404;2024-01-27T03:29:35;11.70;;;4.30;;
1410;SDS011;700;51.906;8.404;2024-01-27T03:34:43;8.97;;;3.37;;
1410;SDS011;700;51.906;8.404;2024-01-27T03:39:45;16.60;;;4.90;;
1410;SDS011;700;51.906;8.404;2024-01-27T03:44:45;11.90;;;4.23;;
1410;SDS011;700;51.906;8.404;2024-01-27T03:49:48;11.03;;;5.10;;
1410;SDS011;700;51.906;8.404;2024-01-27T03:54:51;8.37;;;4.30;;
1410;SDS011;700;51.906;8.404;2024-01-27T03:59:52;13.70;;;4.90;;
1410;SDS011;700;51.906;8.404;2024-01-27T04:04:52;10.97;;;4.70;;
1410;SDS011;700;51.906;8.404;2024-01-27T04:09:53;14.50;;;4.50;;
1410;SDS011;700;51.906;8.404;2024-01-27T04:14:54;14.87;;;5.20;;
1410;SDS011;700;51.906;8.404;2024-01-27T04:19:54;9.93;;;4.17;;
1410;SDS011;700;51.906;8.404;2024-01-27T04:24:57;15.33;;;5.37;;
1410;SDS011;700;51.906;8.404;2024-01-27T04:30:01;19.13;;;5.87;;
1410;SDS011;700;51.906;8.404;2024-01-27T04:35:01;13.40;;;4.63;;
1410;SDS011;700;51.906;8.404;2024-01-27T04:40:06;10.43;;;5.20;;
1410;SDS011;700;51.906;8.404;2024-01-27T04:45:07;16.67;;;4.77;;
1410;SDS011;700;51.906;8.404;2024-01-27T04:50:08;9.30;;;4.50;;
1410;SDS011;700;51.906;8.404;2024-01-27T04:55:11;12.30;;;5.43;;
1410;SDS011;700;51.906;8.404;2024-01-27T05:00:14;15.10;;;5.50;;
1410;SDS011;700;51.906;8.404;2024-01-27T05:05:20;20.07;;;5.90;;
1410;SDS011;700;51.906;8.404;2024-01-27T05:10:20;15.53;;;5.00;;
1410;SDS011;700;51.906;8.404;2024-01-27T05:15:25;14.70;;;6.87;;
1410;SDS011;700;51.906;8.404;2024-01-27T05:20:26;16.47;;;6.27;;
1410;SDS011;700;51.906;8.404;2024-01-27T05:25:29;13.93;;;6.10;;
1410;SDS011;700;51.906;8.404;2024-01-27T05:30:29;12.00;;;5.90;;
1410;SDS011;700;51.906;8.404;2024-01-27T05:35:33;15.33;;;5.90;;
1410;SDS011;700;51.906;8.404;2024-01-27T05:40:36;11.90;;;5.60;;
1410;SDS011;700;51.906;8.404;2024-01-27T05:45:36;11.43;;;4.70;;
1410;SDS011;700;51.906;8.404;2024-01-27T05:50:37;12.30;;;5.67;;
1410;SDS011;700;51.906;8.404;2024-01-27T05:55:37;11.70;;;5.20;;
1410;SDS011;700;51.906;8.404;2024-01-27T06:00:38;13.47;;;5.67;;
1410;SDS011;700;51.906;8.404;2024-01-27T06:05:39;13.67;;;6.30;;
1410;SDS011;700;51.906;8.404;2024-01-27T06:10:40;21.10;;;6.90;;
1410;SDS011;700;51.906;8.404;2024-01-27T06:15:41;12.17;;;6.37;;
1410;SDS011;700;51.906;8.404;2024-01-27T06:20:44;16.30;;;8.00;;
1410;SDS011;700;51.906;8.404;2024-01-27T06:25:44;11.57;;;6.53;;
1410;SDS011;700;51.906;8.404;2024-01-27T06:30:45;14.80;;;5.70;;
1410;SDS011;700;51.906;8.404;2024-01-27T06:35:48;10.27;;;5.70;;
1410;SDS011;700;51.906;8.404;2024-01-27T06:40:51;12.33;;;6.90;;
1410;SDS011;700;51.906;8.404;2024-01-27T06:45:52;12.07;;;6.63;;
1410;SDS011;700;51.906;8.404;2024-01-27T06:50:52;12.17;;;6.70;;
1410;SDS011;700;51.906;8.404;2024-01-27T06:55:54;15.33;;;6.90;;
1410;SDS011;700;51.906;8.404;2024-01-27T07:00:54;18.83;;;7.20;;
1410;SDS011;700;51.906;8.404;2024-01-27T07:05:57;15.47;;;8.10;;
1410;SDS011;700;51.906;8.404;2024-01-27T07:11:01;15.43;;;6.87;;
1410;SDS011;700;51.906;8.404;2024-01-27T07:16:02;18.13;;;6.83;;
1410;SDS011;700;51.906;8.404;2024-01-27T07:21:02;13.20;;;6.60;;
1410;SDS011;700;51.906;8.404;2024-01-27T07:26:03;18.43;;;7.87;;
1410;SDS011;700;51.906;8.404;2024-01-27T07:31:04;16.90;;;8.00;;
1410;SDS011;700;51.906;8.404;2024-01-27T07:36:05;16.97;;;8.90;;
1410;SDS011;700;51.906;8.404;2024-01-27T07:41:06;15.70;;;7.97;;
1410;SDS011;700;51.906;8.404;2024-01-27T07:46:09;14.77;;;8.27;;
1410;SDS011;700;51.906;8.404;2024-01-27T07:51:09;13.03;;;7.67;;
1410;SDS011;700;51.906;8.404;2024-01-27T07:56:10;28.07;;;12.53;;
1410;SDS011;700;51.906;8.404;2024-01-27T08:01:14;20.43;;;10.20;;
1410;SDS011;700;51.906;8.404;2024-01-27T08:06:28;13.67;;;9.10;;
1410;SDS011;700;51.906;8.404;2024-01-27T08:11:32;17.83;;;10.00;;
1410;SDS011;700;51.906;8.404;2024-01-27T08:16:37;19.50;;;11.30;;
1410;SDS011;700;51.906;8.404;2024-01-27T08:21:37;18.73;;;11.13;;
1410;SDS011;700;51.906;8.404;2024-01-27T08:26:41;21.50;;;9.97;;
1410;SDS011;700;51.906;8.404;2024-01-27T08:31:44;19.00;;;12.80;;
1410;SDS011;700;51.906;8.404;2024-01-27T08:36:45;21.43;;;9.37;;
1410;SDS011;700;51.906;8.404;2024-01-27T08:41:46;21.53;;;8.80;;
1410;SDS011;700;51.906;8.404;2024-01-27T08:46:46;20.03;;;8.20;;
1410;SDS011;700;51.906;8.404;2024-01-27T08:51:47;14.90;;;7.30;;
1410;SDS011;700;51.906;8.404;2024-01-27T08:56:50;15.83;;;7.10;;
1410;SDS011;700;51.906;8.404;2024-01-27T09:01:51;17.30;;;7.40;;
1410;SDS011;700;51.906;8.404;2024-01-27T09:06:53;12.70;;;6.93;;
1410;SDS011;700;51.906;8.404;2024-01-27T09:11:54;10.10;;;6.17;;
1410;SDS011;700;51.906;8.404;2024-01-27T09:16:55;15.60;;;6.17;;
1410;SDS011;700;51.906;8.404;2024-01-27T09:21:55;23.40;;;6.90;;
1410;SDS011;700;51.906;8.404;2024-01-27T09:26:56;11.43;;;5.80;;
1410;SDS011;700;51.906;8.404;2024-01-27T09:31:58;9.53;;;5.40;;
1410;SDS011;700;51.906;8.404;2024-01-27T09:36:59;17.00;;;7.07;;
1410;SDS011;700;51.906;8.404;2024-01-27T09:42:00;12.40;;;6.30;;
1410;SDS011;700;51.906;8.404;2024-01-27T09:47:06;10.23;;;5.43;;
1410;SDS011;700;51.906;8.404;2024-01-27T09:52:07;14.57;;;5.90;;
1410;SDS011;700;51.906;8.404;2024-01-27T09:57:08;12.50;;;5.83;;
1410;SDS011;700;51.906;8.404;2024-01-27T10:02:11;12.07;;;6.10;;
1410;SDS011;700;51.906;8.404;2024-01-27T10:07:14;10.30;;;6.50;;
1410;SDS011;700;51.906;8.404;2024-01-27T10:12:16;11.70;;;5.33;;
1410;SDS011;700;51.906;8.404;2024-01-27T10:17:21;9.30;;;5.47;;
1410;SDS011;700;51.906;8.404;2024-01-27T10:22:26;12.03;;;5.67;;
1410;SDS011;700;51.906;8.404;2024-01-27T10:27:27;10.90;;;5.07;;
1410;SDS011;700;51.906;8.404;2024-01-27T10:32:28;14.77;;;5.23;;
1410;SDS011;700;51.906;8.404;2024-01-27T10:37:31;10.67;;;5.73;;
1410;SDS011;700;51.906;8.404;2024-01-27T10:42:31;11.80;;;5.67;;
1410;SDS011;700;51.906;8.404;2024-01-27T10:47:33;14.60;;;5.30;;
1410;SDS011;700;51.906;8.404;2024-01-27T10:52:34;10.27;;;4.60;;
1410;SDS011;700;51.906;8.404;2024-01-27T10:57:40;6.73;;;3.60;;
1410;SDS011;700;51.906;8.404;2024-01-27T11:02:44;16.13;;;6.90;;
1410;SDS011;700;51.906;8.404;2024-01-27T11:07:46;17.77;;;5.50;;
1410;SDS011;700;51.906;8.404;2024-01-27T11:12:47;10.43;;;5.10;;
1410;SDS011;700;51.906;8.404;2024-01-27T11:17:48;11.67;;;4.70;;
1410;SDS011;700;51.906;8.404;2024-01-27T11:23:08;13.03;;;4.60;;
1410;SDS011;700;51.906;8.404;2024-01-27T11:28:12;10.87;;;5.00;;
1410;SDS011;700;51.906;8.404;2024-01-27T11:33:14;9.50;;;4.20;;
1410;SDS011;700;51.906;8.404;2024-01-27T11:38:15;12.07;;;3.73;;
1410;SDS011;700;51.906;8.404;2024-01-27T11:43:16;11.80;;;5.10;;
1410;SDS011;700;51.906;8.404;2024-01-27T11:48:16;11.87;;;4.70;;
1410;SDS011;700;51.906;8.404;2024-01-27T11:53:19;8.93;;;3.80;;
1410;SDS011;700;51.906;8.404;2024-01-27T11:58:20;13.40;;;4.60;;
1410;SDS011;700;51.906;8.404;2024-01-27T12:03:23;11.90;;;4.27;;
1410;SDS011;700;51.906;8.404;2024-01-27T12:08:24;9.20;;;4.43;;
1410;SDS011;700;51.906;8.404;2024-01-27T12:13:25;8.50;;;4.13;;
1410;SDS011;700;51.906;8.404;2024-01-27T12:18:25;10.70;;;3.87;;
1410;SDS011;700;51.906;8.404;2024-01-27T12:23:27;14.07;;;3.60;;
1410;SDS011;700;51.906;8.404;2024-01-27T12:28:31;8.13;;;3.77;;
1410;SDS011;700;51.906;8.404;2024-01-27T12:33:34;10.33;;;3.30;;
1410;SDS011;700;51.906;8.404;2024-01-27T12:38:35;12.03;;;4.80;;
1410;SDS011;700;51.906;8.404;2024-01-27T12:43:35;7.93;;;2.90;;
1410;SDS011;700;51.906;8.404;2024-01-27T12:48:36;6.90;;;4.00;;
1410;SDS011;700;51.906;8.404;2024-01-27T12:53:40;8.77;;;3.17;;
1410;SDS011;700;51.906;8.404;2024-01-27T12:58:44;10.20;;;3.50;;
1410;SDS011;700;51.906;8.404;2024-01-27T13:03:45;9.10;;;4.43;;
1410;SDS011;700;51.906;8.404;2024-01-27T13:08:48;11.37;;;3.43;;
1410;SDS011;700;51.906;8.404;2024-01-27T13:13:48;7.60;;;3.10;;
1410;SDS011;700;51.906;8.404;2024-01-27T13:18:49;10.20;;;3.30;;
1410;SDS011;700;51.906;8.404;2024-01-27T13:23:50;9.17;;;3.40;;
1410;SDS011;700;51.906;8.404;2024-01-27T13:28:53;9.00;;;3.10;;
1410;SDS011;700;51.906;8.404;2024-01-27T13:33:53;12.40;;;4.57;;
1410;SDS011;700;51.906;8.404;2024-01-27T13:38:57;8.30;;;3.13;;
1410;SDS011;700;51.906;8.404;2024-01-27T13:44:00;14.60;;;4.27;;
1410;SDS011;700;51.906;8.404;2024-01-27T13:49:05;8.53;;;3.10;;
1410;SDS011;700;51.906;8.404;2024-01-27T13:54:08;7.90;;;3.00;;
1410;SDS011;700;51.906;8.404;2024-01-27T13:59:11;10.23;;;3.00;;
1410;SDS011;700;51.906;8.404;2024-01-27T14:04:14;10.00;;;2.83;;
1410;SDS011;700;51.906;8.404;2024-01-27T14:09:15;9.40;;;2.60;;
1410;SDS011;700;51.906;8.404;2024-01-27T14:14:19;7.60;;;2.43;;
1410;SDS011;700;51.906;8.404;2024-01-27T14:19:19;5.57;;;3.00;;
1410;SDS011;700;51.906;8.404;2024-01-27T14:24:20;8.60;;;2.87;;
1410;SDS011;700;51.906;8.404;2024-01-27T14:29:23;9.00;;;3.10;;
1410;SDS011;700;51.906;8.404;2024-01-27T14:34:26;9.73;;;2.70;;
1410;SDS011;700;51.906;8.404;2024-01-27T14:39:26;9.30;;;2.70;;
1410;SDS011;700;51.906;8.404;2024-01-27T14:44:27;9.63;;;3.03;;
1410;SDS011;700;51.906;8.404;2024-01-27T14:49:33;6.80;;;2.43;;
1410;SDS011;700;51.906;8.404;2024-01-27T14:54:36;15.07;;;6.60;;
1410;SDS011;700;51.906;8.404;2024-01-27T14:59:39;8.90;;;3.07;;
1410;SDS011;700;51.906;8.404;2024-01-27T15:04:39;7.80;;;3.20;;
1410;SDS011;700;51.906;8.404;2024-01-27T15:09:40;9.90;;;3.40;;
1410;SDS011;700;51.906;8.404;2024-01-27T15:14:40;10.47;;;3.40;;
1410;SDS011;700;51.906;8.404;2024-01-27T15:19:41;10.53;;;3.10;;
1410;SDS011;700;51.906;8.404;2024-01-27T15:24:42;11.33;;;2.93;;
1410;SDS011;700;51.906;8.404;2024-01-27T15:29:45;12.63;;;4.57;;
1410;SDS011;700;51.906;8.404;2024-01-27T15:34:48;12.13;;;4.67;;
1410;SDS011;700;51.906;8.404;2024-01-27T15:39:51;11.43;;;3.30;;
1410;SDS011;700;51.906;8.404;2024-01-27T15:44:53;10.83;;;3.93;;
1410;SDS011;700;51.906;8.404;2024-01-27T15:49:56;14.83;;;6.17;;
1410;SDS011;700;51.906;8.404;2024-01-27T15:55:03;8.77;;;3.80;;
1410;SDS011;700;51.906;8.404;2024-01-27T16:00:04;14.50;;;3.80;;
1410;SDS011;700;51.906;8.404;2024-01-27T16:05:12;6.87;;;3.50;;
1410;SDS011;700;51.906;8.404;2024-01-27T16:10:13;9.63;;;4.23;;
1410;SDS011;700;51.906;8.404;2024-01-27T16:15:16;8.67;;;3.10;;
1410;SDS011;700;51.906;8.404;2024-01-27T16:20:16;12.00;;;4.17;;
1410;SDS011;700;51.906;8.404;2024-01-27T16:25:17;15.10;;;5.27;;
1410;SDS011;700;51.906;8.404;2024-01-27T16:30:18;7.93;;;4.00;;
1410;SDS011;700;51.906;8.404;2024-01-27T16:35:20;11.10;;;5.70;;
1410;SDS011;700;51.906;8.404;2024-01-27T16:40:23;12.53;;;7.07;;
1410;SDS011;700;51.906;8.404;2024-01-27T16:45:26;16.70;;;7.00;;
1410;SDS011;700;51.906;8.404;2024-01-27T16:50:32;24.43;;;11.30;;
1410;SDS011;700;51.906;8.404;2024-01-27T16:55:33;23.73;;;10.47;;
1410;SDS011;700;51.906;8.404;2024-01-27T17:00:34;20.97;;;9.23;;
1410;SDS011;700;51.906;8.404;2024-01-27T17:05:35;18.40;;;6.23;;
1410;SDS011;700;51.906;8.404;2024-01-27T17:10:38;15.90;;;5.10;;
1410;SDS011;700;51.906;8.404;2024-01-27T17:15:39;20.40;;;8.47;;
1410;SDS011;700;51.906;8.404;2024-01-27T17:20:42;21.33;;;9.60;;
1410;SDS011;700;51.906;8.404;2024-01-27T17:25:43;18.03;;;8.03;;
1410;SDS011;700;51.906;8.404;2024-01-27T17:30:46;19.13;;;8.20;;
1410;SDS011;700;51.906;8.404;2024-01-27T17:35:49;18.00;;;8.27;;
1410;SDS011;700;51.906;8.404;2024-01-27T17:40:51;18.00;;;8.80;;
1410;SDS011;700;51.906;8.404;2024-01-27T17:45:55;22.13;;;8.97;;
1410;SDS011;700;51.906;8.404;2024-01-27T17:50:55;14.50;;;7.60;;
1410;SDS011;700;51.906;8.404;2024-01-27T17:55:56;24.87;;;11.60;;
1410;SDS011;700;51.906;8.404;2024-01-27T18:01:00;22.63;;;11.60;;
1410;SDS011;700;51.906;8.404;2024-01-27T18:06:06;22.50;;;14.80;;
1410;SDS011;700;51.906;8.404;2024-01-27T18:11:06;25.53;;;15.23;;
1410;SDS011;700;51.906;8.404;2024-01-27T18:16:09;28.87;;;16.03;;
1410;SDS011;700;51.906;8.404;2024-01-27T18:21:10;27.17;;;14.17;;
1410;SDS011;700;51.906;8.404;2024-01-27T18:26:15;27.20;;;15.07;;
1410;SDS011;700;51.906;8.404;2024-01-27T18:31:15;25.70;;;14.53;;
1410;SDS011;700;51.906;8.404;2024-01-27T18:36:17;30.50;;;15.53;;
1410;SDS011;700;51.906;8.404;2024-01-27T18:41:18;23.67;;;13.87;;
1410;SDS011;700;51.906;8.404;2024-01-27T18:46:18;24.80;;;13.40;;
1410;SDS011;700;51.906;8.404;2024-01-27T18:51:19;30.83;;;18.13;;
1410;SDS011;700;51.906;8.404;2024-01-27T18:56:20;37.70;;;20.17;;
1410;SDS011;700;51.906;8.404;2024-01-27T19:01:22;28.87;;;17.03;;
1410;SDS011;700;51.906;8.404;2024-01-27T19:06:23;31.47;;;16.27;;
1410;SDS011;700;51.906;8.404;2024-01-27T19:11:26;31.00;;;16.20;;
1410;SDS011;700;51.906;8.404;2024-01-27T19:16:27;25.57;;;15.10;;
1410;SDS011;700;51.906;8.404;2024-01-27T19:21:27;23.57;;;14.37;;
1410;SDS011;700;51.906;8.404;2024-01-27T19:26:33;22.47;;;14.70;;
1410;SDS011;700;51.906;8.404;2024-01-27T19:31:35;33.93;;;14.87;;
1410;SDS011;700;51.906;8.404;2024-01-27T19:36:38;28.53;;;15.63;;
1410;SDS011;700;51.906;8.404;2024-01-27T19:41:39;25.63;;;14.97;;
1410;SDS011;700;51.906;8.404;2024-01-27T19:46:40;29.33;;;16.90;;
1410;SDS011;700;51.906;8.404;2024-01-27T19:51:43;31.37;;;19.53;;
1410;SDS011;700;51.906;8.404;2024-01-27T19:56:46;36.27;;;22.43;;
1410;SDS011;700;51.906;8.404;2024-01-27T20:01:46;36.77;;;22.47;;
1410;SDS011;700;51.906;8.404;2024-01-27T20:06:50;48.27;;;28.43;;
1410;SDS011;700;51.906;8.404;2024-01-27T20:11:56;35.70;;;23.23;;
1410;SDS011;700;51.906;8.404;2024-01-27T20:16:56;39.33;;;21.90;;
1410;SDS011;700;51.906;8.404;2024-01-27T20:21:57;38.13;;;21.30;;
1410;SDS011;700;51.906;8.404;2024-01-27T20:26:58;35.70;;;22.30;;
1410;SDS011;700;51.906;8.404;2024-01-27T20:31:58;39.47;;;23.10;;
1410;SDS011;700;51.906;8.404;2024-01-27T20:36:59;35.30;;;22.33;;
1410;SDS011;700;51.906;8.404;2024-01-27T20:42:00;39.23;;;22.03;;
1410;SDS011;700;51.906;8.404;2024-01-27T20:47:00;33.63;;;20.50;;
1410;SDS011;700;51.906;8.404;2024-01-27T20:52:01;33.83;;;21.67;;
1410;SDS011;700;51.906;8.404;2024-01-27T20:57:02;40.60;;;21.10;;
1410;SDS011;700;51.906;8.404;2024-01-27T21:02:03;26.93;;;17.80;;
1410;SDS011;700;51.906;8.404;2024-01-27T21:07:05;24.67;;;15.50;;
1410;SDS011;700;51.906;8.404;2024-01-27T21:12:06;28.13;;;15.03;;
1410;SDS011;700;51.906;8.404;2024-01-27T21:17:06;21.50;;;14.50;;
1410;SDS011;700;51.906;8.404;2024-01-27T21:22:09;20.17;;;14.63;;
1410;SDS011;700;51.906;8.404;2024-01-27T21:27:12;28.13;;;14.93;;
1410;SDS011;700;51.906;8.404;2024-01-27T21:32:13;28.63;;;15.27;;
1410;SDS011;700;51.906;8.404;2024-01-27T21:37:14;30.27;;;16.43;;
1410;SDS011;700;51.906;8.404;2024-01-27T21:42:14;23.07;;;16.23;;
1410;SDS011;700;51.906;8.404;2024-01-27T21:47:18;25.10;;;14.17;;
1410;SDS011;700;51.906;8.404;2024-01-27T21:52:21;28.17;;;14.03;;
1410;SDS011;700;51.906;8.404;2024-01-27T21:57:24;21.53;;;12.93;;
1410;SDS011;700;51.906;8.404;2024-01-27T22:02:27;28.17;;;15.13;;
1410;SDS011;700;51.906;8.404;2024-01-27T22:07:30;26.90;;;15.27;;
1410;SDS011;700;51.906;8.404;2024-01-27T22:12:33;20.43;;;12.80;;
1410;SDS011;700;51.906;8.404;2024-01-27T22:17:33;22.13;;;12.80;;
1410;SDS011;700;51.906;8.404;2024-01-27T22:22:34;25.00;;;15.03;;
1410;SDS011;700;51.906;8.404;2024-01-27T22:27:37;24.30;;;13.13;;
1410;SDS011;700;51.906;8.404;2024-01-27T22:32:38;24.90;;;14.17;;
1410;SDS011;700;51.906;8.404;2024-01-27T22:37:39;26.40;;;16.20;;
1410;SDS011;700;51.906;8.404;2024-01-27T22:42:40;31.30;;;15.00;;
1410;SDS011;700;51.906;8.404;2024-01-27T22:47:43;26.07;;;14.87;;
1410;SDS011;700;51.906;8.404;2024-01-27T22:52:48;27.37;;;14.87;;
1410;SDS011;700;51.906;8.404;2024-01-27T22:57:49;21.13;;;12.87;;
1410;SDS011;700;51.906;8.404;2024-01-27T23:02:51;28.03;;;11.87;;
1410;SDS011;700;51.906;8.404;2024-01-27T23:07:52;17.43;;;11.13;;
1410;SDS011;700;51.906;8.404;2024-01-27T23:12:53;19.50;;;10.53;;
1410;SDS011;700;51.906;8.404;2024-01-27T23:17:53;26.50;;;10.63;;
1410;SDS011;700;51.906;8.404;2024-01-27T23:22:54;17.10;;;10.73;;
1410;SDS011;700;51.906;8.404;2024-01-27T23:27:59;20.30;;;10.57;;
1410;SDS011;700;51.906;8.404;2024-01-27T23:33:02;18.20;;;10.20;;
1410;SDS011;700;51.906;8.404;2024-01-27T23:38:02;20.33;;;11.00;;
1410;SDS011;700;51.906;8.404;2024-01-27T23:43:03;22.43;;;10.20;;
1410;SDS011;700;51.906;8.404;2024-01-27T23:48:04;19.60;;;9.90;;
1410;SDS011;700;51.906;8.404;2024-01-27T23:53:05;23.03;;;9.80;;
1410;SDS011;700;51.906;8.404;2024-01-27T23:58:08;16.60;;;9.00;;
